sensor_id;sensor_type;location;lat;lon;timestamp;pressure;altitude;pressure_sealevel;temperature
68745;BMP180;66104;45.456;11.064;2023-02-22T00:02:31;100987.40;;;12.10
68745;BMP180;66104;45.456;11.064;2023-02-22T00:05:10;100989.80;;;12.10
68745;BMP180;66104;45.456;11.064;2023-02-22T00:07:50;100990.00;;;12.00
68745;BMP180;66104;45.456;11.064;2023-02-22T00:10:30;100989.80;;;12.00
68745;BMP180;66104;45.456;11.064;2023-02-22T00:13:07;100987.80;;;12.00
68745;BMP180;66104;45.456;11.064;2023-02-22T00:15:43;100985.80;;;12.00
68745;BMP180;66104;45.456;11.064;2023-02-22T00:18:20;100987.60;;;12.00
68745;BMP180;66104;45.456;11.064;2023-02-22T00:20:58;100981.40;;;12.00
68745;BMP180;66104;45.456;11.064;2023-02-22T00:23:35;100985.20;;;12.00
68745;BMP180;66104;45.456;11.064;2023-02-22T00:26:14;100985.80;;;12.00
68745;BMP180;66104;45.456;11.064;2023-02-22T00:28:52;100985.00;;;12.00
68745;BMP180;66104;45.456;11.064;2023-02-22T00:31:29;100980.60;;;12.00
68745;BMP180;66104;45.456;11.064;2023-02-22T00:34:06;100979.80;;;12.00
68745;BMP180;66104;45.456;11.064;2023-02-22T00:36:45;100982.60;;;12.00
68745;BMP180;66104;45.456;11.064;2023-02-22T00:39:22;100976.60;;;12.00
68745;BMP180;66104;45.456;11.064;2023-02-22T00:41:59;100977.60;;;12.00
68745;BMP180;66104;45.456;11.064;2023-02-22T00:44:35;100975.80;;;12.00
68745;BMP180;66104;45.456;11.064;2023-02-22T00:47:12;100971.00;;;12.00
68745;BMP180;66104;45.456;11.064;2023-02-22T00:49:48;100968.20;;;12.00
68745;BMP180;66104;45.456;11.064;2023-02-22T00:52:24;100968.00;;;12.00
68745;BMP180;66104;45.456;11.064;2023-02-22T00:55:00;100966.60;;;12.00
68745;BMP180;66104;45.456;11.064;2023-02-22T00:57:38;100967.20;;;12.00
68745;BMP180;66104;45.456;11.064;2023-02-22T01:00:21;100968.60;;;12.00
68745;BMP180;66104;45.456;11.064;2023-02-22T01:02:58;100967.60;;;12.00
68745;BMP180;66104;45.456;11.064;2023-02-22T01:05:35;100968.60;;;12.00
68745;BMP180;66104;45.456;11.064;2023-02-22T01:08:15;100967.80;;;12.00
68745;BMP180;66104;45.456;11.064;2023-02-22T01:10:53;100969.60;;;11.90
68745;BMP180;66104;45.456;11.064;2023-02-22T01:13:31;100970.00;;;11.90
68745;BMP180;66104;45.456;11.064;2023-02-22T01:16:09;100968.00;;;11.90
68745;BMP180;66104;45.456;11.064;2023-02-22T01:18:45;100965.60;;;11.84
68745;BMP180;66104;45.456;11.064;2023-02-22T01:21:22;100966.20;;;11.80
68745;BMP180;66104;45.456;11.064;2023-02-22T01:23:59;100966.40;;;11.80
68745;BMP180;66104;45.456;11.064;2023-02-22T01:26:36;100961.00;;;11.80
68745;BMP180;66104;45.456;11.064;2023-02-22T01:29:13;100962.40;;;11.80
68745;BMP180;66104;45.456;11.064;2023-02-22T01:31:55;100961.40;;;11.80
68745;BMP180;66104;45.456;11.064;2023-02-22T01:34:32;100956.00;;;11.80
68745;BMP180;66104;45.456;11.064;2023-02-22T01:37:08;100954.40;;;11.80
68745;BMP180;66104;45.456;11.064;2023-02-22T01:39:45;100952.80;;;11.80
68745;BMP180;66104;45.456;11.064;2023-02-22T01:42:23;100949.40;;;11.84
68745;BMP180;66104;45.456;11.064;2023-02-22T01:45:46;100946.60;;;11.88
68745;BMP180;66104;45.456;11.064;2023-02-22T01:48:27;100942.00;;;11.90
68745;BMP180;66104;45.456;11.064;2023-02-22T01:51:09;100938.80;;;11.90
68745;BMP180;66104;45.456;11.064;2023-02-22T01:53:53;100939.80;;;11.80
68745;BMP180;66104;45.456;11.064;2023-02-22T01:56:34;100936.80;;;11.80
68745;BMP180;66104;45.456;11.064;2023-02-22T01:59:15;100931.60;;;11.80
68745;BMP180;66104;45.456;11.064;2023-02-22T02:01:52;100931.60;;;11.80
68745;BMP180;66104;45.456;11.064;2023-02-22T02:04:30;100929.00;;;11.80
68745;BMP180;66104;45.456;11.064;2023-02-22T02:07:09;100926.40;;;11.80
68745;BMP180;66104;45.456;11.064;2023-02-22T02:09:53;100925.60;;;11.80
68745;BMP180;66104;45.456;11.064;2023-02-22T02:12:36;100922.00;;;11.80
68745;BMP180;66104;45.456;11.064;2023-02-22T02:15:26;100919.20;;;11.80
68745;BMP180;66104;45.456;11.064;2023-02-22T02:18:07;100916.40;;;11.80
68745;BMP180;66104;45.456;11.064;2023-02-22T02:21:03;100919.20;;;11.80
68745;BMP180;66104;45.456;11.064;2023-02-22T02:27:18;100912.40;;;11.80
68745;BMP180;66104;45.456;11.064;2023-02-22T02:33:24;100908.00;;;11.80
68745;BMP180;66104;45.456;11.064;2023-02-22T02:36:11;100907.20;;;11.70
68745;BMP180;66104;45.456;11.064;2023-02-22T02:38:58;100904.20;;;11.80
68745;BMP180;66104;45.456;11.064;2023-02-22T02:41:42;100900.40;;;11.76
68745;BMP180;66104;45.456;11.064;2023-02-22T02:44:25;100899.40;;;11.80
68745;BMP180;66104;45.456;11.064;2023-02-22T02:47:08;100896.60;;;11.80
68745;BMP180;66104;45.456;11.064;2023-02-22T02:49:53;100893.00;;;11.80
68745;BMP180;66104;45.456;11.064;2023-02-22T02:52:34;100887.60;;;11.80
68745;BMP180;66104;45.456;11.064;2023-02-22T02:55:13;100887.40;;;11.70
68745;BMP180;66104;45.456;11.064;2023-02-22T02:57:50;100884.60;;;11.80
68745;BMP180;66104;45.456;11.064;2023-02-22T03:00:32;100883.80;;;11.74
68745;BMP180;66104;45.456;11.064;2023-02-22T03:09:44;100881.00;;;11.70
68745;BMP180;66104;45.456;11.064;2023-02-22T03:12:35;100874.60;;;11.70
68745;BMP180;66104;45.456;11.064;2023-02-22T03:15:31;100869.80;;;11.70
68745;BMP180;66104;45.456;11.064;2023-02-22T03:18:18;100870.20;;;11.72
68745;BMP180;66104;45.456;11.064;2023-02-22T03:21:06;100870.20;;;11.80
68745;BMP180;66104;45.456;11.064;2023-02-22T03:23:54;100866.80;;;11.80
68745;BMP180;66104;45.456;11.064;2023-02-22T03:26:41;100866.00;;;11.80
68745;BMP180;66104;45.456;11.064;2023-02-22T03:29:22;100862.00;;;11.80
68745;BMP180;66104;45.456;11.064;2023-02-22T03:32:02;100865.80;;;11.80
68745;BMP180;66104;45.456;11.064;2023-02-22T03:34:44;100862.00;;;11.80
68745;BMP180;66104;45.456;11.064;2023-02-22T03:37:29;100861.40;;;11.78
68745;BMP180;66104;45.456;11.064;2023-02-22T03:40:14;100866.20;;;11.80
68745;BMP180;66104;45.456;11.064;2023-02-22T03:43:08;100867.80;;;11.80
68745;BMP180;66104;45.456;11.064;2023-02-22T03:45:48;100867.00;;;11.80
68745;BMP180;66104;45.456;11.064;2023-02-22T03:48:34;100866.80;;;11.80
68745;BMP180;66104;45.456;11.064;2023-02-22T03:51:14;100866.00;;;11.80
68745;BMP180;66104;45.456;11.064;2023-02-22T03:53:55;100865.60;;;11.80
68745;BMP180;66104;45.456;11.064;2023-02-22T03:56:41;100870.20;;;11.80
68745;BMP180;66104;45.456;11.064;2023-02-22T03:59:20;100865.60;;;11.72
68745;BMP180;66104;45.456;11.064;2023-02-22T04:02:00;100866.60;;;11.74
68745;BMP180;66104;45.456;11.064;2023-02-22T04:04:37;100871.80;;;11.74
68745;BMP180;66104;45.456;11.064;2023-02-22T04:07:14;100872.00;;;11.70
68745;BMP180;66104;45.456;11.064;2023-02-22T04:09:51;100873.00;;;11.70
68745;BMP180;66104;45.456;11.064;2023-02-22T04:12:27;100873.00;;;11.70
68745;BMP180;66104;45.456;11.064;2023-02-22T04:15:12;100873.40;;;11.70
68745;BMP180;66104;45.456;11.064;2023-02-22T04:17:50;100875.20;;;11.70
68745;BMP180;66104;45.456;11.064;2023-02-22T04:20:27;100876.60;;;11.70
68745;BMP180;66104;45.456;11.064;2023-02-22T04:23:09;100876.80;;;11.70
68745;BMP180;66104;45.456;11.064;2023-02-22T04:25:46;100878.20;;;11.70
68745;BMP180;66104;45.456;11.064;2023-02-22T04:28:23;100878.00;;;11.70
68745;BMP180;66104;45.456;11.064;2023-02-22T04:31:09;100879.20;;;11.70
68745;BMP180;66104;45.456;11.064;2023-02-22T04:33:47;100874.60;;;11.70
68745;BMP180;66104;45.456;11.064;2023-02-22T04:36:27;100875.40;;;11.70
68745;BMP180;66104;45.456;11.064;2023-02-22T04:39:06;100874.20;;;11.70
68745;BMP180;66104;45.456;11.064;2023-02-22T04:41:42;100877.40;;;11.70
68745;BMP180;66104;45.456;11.064;2023-02-22T04:44:20;100875.00;;;11.70
68745;BMP180;66104;45.456;11.064;2023-02-22T04:46:56;100876.20;;;11.70
68745;BMP180;66104;45.456;11.064;2023-02-22T04:49:33;100878.60;;;11.70
68745;BMP180;66104;45.456;11.064;2023-02-22T04:52:11;100873.00;;;11.70
68745;BMP180;66104;45.456;11.064;2023-02-22T04:54:49;100875.20;;;11.70
68745;BMP180;66104;45.456;11.064;2023-02-22T04:57:26;100875.40;;;11.70
68745;BMP180;66104;45.456;11.064;2023-02-22T05:00:03;100875.00;;;11.70
68745;BMP180;66104;45.456;11.064;2023-02-22T05:02:41;100875.60;;;11.70
68745;BMP180;66104;45.456;11.064;2023-02-22T05:05:20;100879.00;;;11.60
68745;BMP180;66104;45.456;11.064;2023-02-22T05:07:58;100880.80;;;11.60
68745;BMP180;66104;45.456;11.064;2023-02-22T05:10:34;100879.60;;;11.60
68745;BMP180;66104;45.456;11.064;2023-02-22T05:13:11;100875.00;;;11.52
68745;BMP180;66104;45.456;11.064;2023-02-22T05:15:48;100876.00;;;11.50
68745;BMP180;66104;45.456;11.064;2023-02-22T05:18:23;100875.20;;;11.50
68745;BMP180;66104;45.456;11.064;2023-02-22T05:21:00;100876.20;;;11.50
68745;BMP180;66104;45.456;11.064;2023-02-22T05:23:37;100875.00;;;11.50
68745;BMP180;66104;45.456;11.064;2023-02-22T05:26:14;100875.20;;;11.50
68745;BMP180;66104;45.456;11.064;2023-02-22T05:28:51;100871.20;;;11.50
68745;BMP180;66104;45.456;11.064;2023-02-22T05:31:29;100872.80;;;11.50
68745;BMP180;66104;45.456;11.064;2023-02-22T05:34:05;100875.00;;;11.50
68745;BMP180;66104;45.456;11.064;2023-02-22T05:36:42;100875.20;;;11.50
68745;BMP180;66104;45.456;11.064;2023-02-22T05:39:19;100878.60;;;11.50
68745;BMP180;66104;45.456;11.064;2023-02-22T05:41:56;100880.00;;;11.50
68745;BMP180;66104;45.456;11.064;2023-02-22T05:44:33;100881.20;;;11.50
68745;BMP180;66104;45.456;11.064;2023-02-22T05:47:09;100878.80;;;11.50
68745;BMP180;66104;45.456;11.064;2023-02-22T05:49:46;100880.80;;;11.50
68745;BMP180;66104;45.456;11.064;2023-02-22T05:52:23;100880.80;;;11.50
68745;BMP180;66104;45.456;11.064;2023-02-22T05:55:01;100877.80;;;11.50
68745;BMP180;66104;45.456;11.064;2023-02-22T05:57:37;100878.00;;;11.50
68745;BMP180;66104;45.456;11.064;2023-02-22T06:00:23;100879.40;;;11.50
68745;BMP180;66104;45.456;11.064;2023-02-22T06:03:02;100878.40;;;11.50
68745;BMP180;66104;45.456;11.064;2023-02-22T06:05:40;100878.80;;;11.50
68745;BMP180;66104;45.456;11.064;2023-02-22T06:08:17;100885.80;;;11.50
68745;BMP180;66104;45.456;11.064;2023-02-22T06:10:54;100886.60;;;11.50
68745;BMP180;66104;45.456;11.064;2023-02-22T06:13:31;100890.00;;;11.50
68745;BMP180;66104;45.456;11.064;2023-02-22T06:16:09;100886.40;;;11.50
68745;BMP180;66104;45.456;11.064;2023-02-22T06:18:46;100882.40;;;11.50
68745;BMP180;66104;45.456;11.064;2023-02-22T06:21:23;100880.60;;;11.50
68745;BMP180;66104;45.456;11.064;2023-02-22T06:24:02;100888.40;;;11.50
68745;BMP180;66104;45.456;11.064;2023-02-22T06:26:40;100885.00;;;11.50
68745;BMP180;66104;45.456;11.064;2023-02-22T06:29:17;100886.60;;;11.50
68745;BMP180;66104;45.456;11.064;2023-02-22T06:31:54;100889.80;;;11.50
68745;BMP180;66104;45.456;11.064;2023-02-22T06:34:30;100898.00;;;11.56
68745;BMP180;66104;45.456;11.064;2023-02-22T06:37:07;100896.80;;;11.60
68745;BMP180;66104;45.456;11.064;2023-02-22T06:39:43;100901.60;;;11.60
68745;BMP180;66104;45.456;11.064;2023-02-22T06:42:21;100902.80;;;11.60
68745;BMP180;66104;45.456;11.064;2023-02-22T06:44:57;100903.60;;;11.60
68745;BMP180;66104;45.456;11.064;2023-02-22T06:47:33;100904.80;;;11.60
68745;BMP180;66104;45.456;11.064;2023-02-22T06:50:29;100909.40;;;11.60
68745;BMP180;66104;45.456;11.064;2023-02-22T06:53:09;100911.80;;;11.60
68745;BMP180;66104;45.456;11.064;2023-02-22T06:55:46;100908.80;;;11.60
68745;BMP180;66104;45.456;11.064;2023-02-22T06:58:23;100914.80;;;11.60
68745;BMP180;66104;45.456;11.064;2023-02-22T07:01:00;100914.40;;;11.60
68745;BMP180;66104;45.456;11.064;2023-02-22T07:03:37;100916.60;;;11.60
68745;BMP180;66104;45.456;11.064;2023-02-22T07:06:13;100917.80;;;11.60
68745;BMP180;66104;45.456;11.064;2023-02-22T07:08:50;100917.20;;;11.60
68745;BMP180;66104;45.456;11.064;2023-02-22T07:11:27;100920.00;;;11.60
68745;BMP180;66104;45.456;11.064;2023-02-22T07:14:04;100920.00;;;11.60
68745;BMP180;66104;45.456;11.064;2023-02-22T07:16:40;100920.80;;;11.60
68745;BMP180;66104;45.456;11.064;2023-02-22T07:19:17;100921.20;;;11.60
68745;BMP180;66104;45.456;11.064;2023-02-22T07:21:53;100920.20;;;11.60
68745;BMP180;66104;45.456;11.064;2023-02-22T07:24:32;100918.40;;;11.60
68745;BMP180;66104;45.456;11.064;2023-02-22T07:27:09;100922.60;;;11.60
68745;BMP180;66104;45.456;11.064;2023-02-22T07:29:48;100921.80;;;11.62
68745;BMP180;66104;45.456;11.064;2023-02-22T07:32:24;100918.00;;;11.64
68745;BMP180;66104;45.456;11.064;2023-02-22T07:35:01;100914.20;;;11.70
68745;BMP180;66104;45.456;11.064;2023-02-22T07:37:37;100919.00;;;11.70
68745;BMP180;66104;45.456;11.064;2023-02-22T07:40:16;100922.20;;;11.70
68745;BMP180;66104;45.456;11.064;2023-02-22T07:43:03;100917.80;;;11.70
68745;BMP180;66104;45.456;11.064;2023-02-22T07:45:41;100914.20;;;11.70
68745;BMP180;66104;45.456;11.064;2023-02-22T07:48:18;100917.40;;;11.70
68745;BMP180;66104;45.456;11.064;2023-02-22T07:50:54;100917.00;;;11.76
68745;BMP180;66104;45.456;11.064;2023-02-22T07:53:31;100909.00;;;11.78
68745;BMP180;66104;45.456;11.064;2023-02-22T07:56:10;100908.80;;;11.80
68745;BMP180;66104;45.456;11.064;2023-02-22T07:58:47;100908.80;;;11.80
68745;BMP180;66104;45.456;11.064;2023-02-22T08:01:23;100910.00;;;11.84
68745;BMP180;66104;45.456;11.064;2023-02-22T08:04:00;100911.00;;;11.90
68745;BMP180;66104;45.456;11.064;2023-02-22T08:06:38;100908.40;;;11.90
68745;BMP180;66104;45.456;11.064;2023-02-22T08:09:15;100904.00;;;12.00
68745;BMP180;66104;45.456;11.064;2023-02-22T08:11:52;100901.40;;;12.10
68745;BMP180;66104;45.456;11.064;2023-02-22T08:14:29;100902.60;;;12.10
68745;BMP180;66104;45.456;11.064;2023-02-22T08:17:05;100900.80;;;12.10
68745;BMP180;66104;45.456;11.064;2023-02-22T08:19:42;100902.20;;;12.20
68745;BMP180;66104;45.456;11.064;2023-02-22T08:22:19;100904.60;;;12.20
68745;BMP180;66104;45.456;11.064;2023-02-22T08:24:56;100899.80;;;12.20
68745;BMP180;66104;45.456;11.064;2023-02-22T08:27:33;100901.80;;;12.28
68745;BMP180;66104;45.456;11.064;2023-02-22T08:30:16;100901.40;;;12.30
68745;BMP180;66104;45.456;11.064;2023-02-22T08:32:53;100897.40;;;12.30
68745;BMP180;66104;45.456;11.064;2023-02-22T08:35:31;100898.00;;;12.30
68745;BMP180;66104;45.456;11.064;2023-02-22T08:38:17;100895.20;;;12.40
68745;BMP180;66104;45.456;11.064;2023-02-22T08:40:54;100895.40;;;12.40
68745;BMP180;66104;45.456;11.064;2023-02-22T08:43:31;100893.00;;;12.48
68745;BMP180;66104;45.456;11.064;2023-02-22T08:46:09;100892.80;;;12.50
68745;BMP180;66104;45.456;11.064;2023-02-22T08:48:54;100886.00;;;12.52
68745;BMP180;66104;45.456;11.064;2023-02-22T08:51:35;100888.20;;;12.60
68745;BMP180;66104;45.456;11.064;2023-02-22T08:54:12;100887.20;;;12.70
68745;BMP180;66104;45.456;11.064;2023-02-22T08:56:49;100886.40;;;12.70
68745;BMP180;66104;45.456;11.064;2023-02-22T08:59:26;100884.80;;;12.80
68745;BMP180;66104;45.456;11.064;2023-02-22T09:02:02;100889.00;;;12.90
68745;BMP180;66104;45.456;11.064;2023-02-22T09:04:39;100886.20;;;12.90
68745;BMP180;66104;45.456;11.064;2023-02-22T09:07:16;100887.00;;;13.00
68745;BMP180;66104;45.456;11.064;2023-02-22T09:09:53;100883.40;;;13.00
68745;BMP180;66104;45.456;11.064;2023-02-22T09:12:30;100885.60;;;13.10
68745;BMP180;66104;45.456;11.064;2023-02-22T09:15:09;100883.60;;;13.10
68745;BMP180;66104;45.456;11.064;2023-02-22T09:17:46;100880.60;;;13.10
68745;BMP180;66104;45.456;11.064;2023-02-22T09:20:26;100877.60;;;13.10
68745;BMP180;66104;45.456;11.064;2023-02-22T09:23:03;100882.60;;;13.04
68745;BMP180;66104;45.456;11.064;2023-02-22T09:25:40;100877.20;;;13.10
68745;BMP180;66104;45.456;11.064;2023-02-22T09:28:17;100876.00;;;13.20
68745;BMP180;66104;45.456;11.064;2023-02-22T09:30:54;100873.00;;;13.30
68745;BMP180;66104;45.456;11.064;2023-02-22T09:33:30;100870.40;;;13.40
68745;BMP180;66104;45.456;11.064;2023-02-22T09:36:09;100869.20;;;13.50
68745;BMP180;66104;45.456;11.064;2023-02-22T09:38:48;100867.60;;;13.54
68745;BMP180;66104;45.456;11.064;2023-02-22T09:41:29;100866.60;;;13.70
68745;BMP180;66104;45.456;11.064;2023-02-22T09:44:21;100862.60;;;13.80
68745;BMP180;66104;45.456;11.064;2023-02-22T09:47:00;100863.40;;;13.90
68745;BMP180;66104;45.456;11.064;2023-02-22T09:49:46;100861.40;;;13.90
68745;BMP180;66104;45.456;11.064;2023-02-22T09:52:33;100863.60;;;14.00
68745;BMP180;66104;45.456;11.064;2023-02-22T09:55:30;100863.20;;;14.00
68745;BMP180;66104;45.456;11.064;2023-02-22T09:58:21;100864.20;;;14.00
68745;BMP180;66104;45.456;11.064;2023-02-22T10:01:09;100864.80;;;13.94
68745;BMP180;66104;45.456;11.064;2023-02-22T10:03:57;100856.80;;;14.00
68745;BMP180;66104;45.456;11.064;2023-02-22T10:06:36;100856.00;;;14.00
68745;BMP180;66104;45.456;11.064;2023-02-22T10:09:15;100852.40;;;13.90
68745;BMP180;66104;45.456;11.064;2023-02-22T10:12:04;100851.20;;;13.90
68745;BMP180;66104;45.456;11.064;2023-02-22T10:15:25;100848.40;;;13.90
68745;BMP180;66104;45.456;11.064;2023-02-22T10:18:41;100842.20;;;13.90
68745;BMP180;66104;45.456;11.064;2023-02-22T10:21:38;100842.40;;;14.00
68745;BMP180;66104;45.456;11.064;2023-02-22T10:24:34;100836.40;;;14.00
68745;BMP180;66104;45.456;11.064;2023-02-22T10:27:21;100836.80;;;14.10
68745;BMP180;66104;45.456;11.064;2023-02-22T10:30:07;100837.80;;;14.10
68745;BMP180;66104;45.456;11.064;2023-02-22T10:33:07;100835.00;;;14.20
68745;BMP180;66104;45.456;11.064;2023-02-22T10:35:47;100838.00;;;14.20
68745;BMP180;66104;45.456;11.064;2023-02-22T10:38:28;100839.40;;;14.20
68745;BMP180;66104;45.456;11.064;2023-02-22T10:41:21;100835.40;;;14.30
68745;BMP180;66104;45.456;11.064;2023-02-22T10:43:59;100834.20;;;14.40
68745;BMP180;66104;45.456;11.064;2023-02-22T10:46:37;100824.80;;;14.44
68745;BMP180;66104;45.456;11.064;2023-02-22T10:49:19;100824.60;;;14.50
68745;BMP180;66104;45.456;11.064;2023-02-22T10:52:02;100822.80;;;14.54
68745;BMP180;66104;45.456;11.064;2023-02-22T10:54:45;100819.00;;;14.50
68745;BMP180;66104;45.456;11.064;2023-02-22T10:57:27;100817.60;;;14.50
68745;BMP180;66104;45.456;11.064;2023-02-22T11:00:19;100810.20;;;14.40
68745;BMP180;66104;45.456;11.064;2023-02-22T11:03:01;100807.80;;;14.40
68745;BMP180;66104;45.456;11.064;2023-02-22T11:05:41;100806.80;;;14.40
68745;BMP180;66104;45.456;11.064;2023-02-22T11:08:29;100803.20;;;14.40
68745;BMP180;66104;45.456;11.064;2023-02-22T11:11:23;100799.80;;;14.40
68745;BMP180;66104;45.456;11.064;2023-02-22T11:14:00;100798.20;;;14.40
68745;BMP180;66104;45.456;11.064;2023-02-22T11:16:42;100791.80;;;14.40
68745;BMP180;66104;45.456;11.064;2023-02-22T11:19:27;100791.00;;;14.40
68745;BMP180;66104;45.456;11.064;2023-02-22T11:22:18;100782.40;;;14.48
68745;BMP180;66104;45.456;11.064;2023-02-22T11:25:00;100786.40;;;14.50
68745;BMP180;66104;45.456;11.064;2023-02-22T11:27:42;100778.60;;;14.60
68745;BMP180;66104;45.456;11.064;2023-02-22T11:30:30;100771.40;;;14.60
68745;BMP180;66104;45.456;11.064;2023-02-22T11:33:21;100770.60;;;14.62
68745;BMP180;66104;45.456;11.064;2023-02-22T11:36:02;100767.20;;;14.62
68745;BMP180;66104;45.456;11.064;2023-02-22T11:38:55;100763.40;;;14.70
68745;BMP180;66104;45.456;11.064;2023-02-22T11:41:34;100763.80;;;14.70
68745;BMP180;66104;45.456;11.064;2023-02-22T11:44:26;100762.60;;;14.70
68745;BMP180;66104;45.456;11.064;2023-02-22T11:47:08;100754.20;;;14.60
68745;BMP180;66104;45.456;11.064;2023-02-22T11:49:48;100753.00;;;14.60
68745;BMP180;66104;45.456;11.064;2023-02-22T11:52:35;100753.00;;;14.60
68745;BMP180;66104;45.456;11.064;2023-02-22T11:55:25;100751.60;;;14.60
68745;BMP180;66104;45.456;11.064;2023-02-22T11:58:38;100751.40;;;14.56
68745;BMP180;66104;45.456;11.064;2023-02-22T12:01:25;100743.20;;;14.50
68745;BMP180;66104;45.456;11.064;2023-02-22T12:04:41;100745.60;;;14.50
68745;BMP180;66104;45.456;11.064;2023-02-22T12:07:39;100740.20;;;14.50
68745;BMP180;66104;45.456;11.064;2023-02-22T12:10:36;100736.00;;;14.40
68745;BMP180;66104;45.456;11.064;2023-02-22T12:13:35;100736.00;;;14.40
68745;BMP180;66104;45.456;11.064;2023-02-22T12:16:26;100732.40;;;14.40
68745;BMP180;66104;45.456;11.064;2023-02-22T12:19:20;100727.60;;;14.50
68745;BMP180;66104;45.456;11.064;2023-02-22T12:22:11;100723.80;;;14.50
68745;BMP180;66104;45.456;11.064;2023-02-22T12:24:57;100726.00;;;14.54
68745;BMP180;66104;45.456;11.064;2023-02-22T12:27:49;100728.80;;;14.60
68745;BMP180;66104;45.456;11.064;2023-02-22T12:30:33;100728.20;;;14.58
68745;BMP180;66104;45.456;11.064;2023-02-22T12:33:17;100721.80;;;14.60
68745;BMP180;66104;45.456;11.064;2023-02-22T12:35:59;100724.20;;;14.60
68745;BMP180;66104;45.456;11.064;2023-02-22T12:38:41;100722.20;;;14.60
68745;BMP180;66104;45.456;11.064;2023-02-22T12:41:29;100721.00;;;14.60
68745;BMP180;66104;45.456;11.064;2023-02-22T12:44:13;100714.20;;;14.60
68745;BMP180;66104;45.456;11.064;2023-02-22T12:46:56;100715.60;;;14.60
68745;BMP180;66104;45.456;11.064;2023-02-22T12:49:37;100713.00;;;14.54
68745;BMP180;66104;45.456;11.064;2023-02-22T12:52:24;100711.60;;;14.50
68745;BMP180;66104;45.456;11.064;2023-02-22T12:55:10;100704.40;;;14.40
68745;BMP180;66104;45.456;11.064;2023-02-22T12:57:55;100708.20;;;14.40
68745;BMP180;66104;45.456;11.064;2023-02-22T13:00:42;100706.60;;;14.40
68745;BMP180;66104;45.456;11.064;2023-02-22T13:03:43;100711.20;;;14.40
68745;BMP180;66104;45.456;11.064;2023-02-22T13:06:43;100703.40;;;14.40
68745;BMP180;66104;45.456;11.064;2023-02-22T13:09:48;100706.00;;;14.42
68745;BMP180;66104;45.456;11.064;2023-02-22T13:12:33;100707.80;;;14.50
68745;BMP180;66104;45.456;11.064;2023-02-22T13:15:22;100702.80;;;14.50
68745;BMP180;66104;45.456;11.064;2023-02-22T13:18:11;100703.60;;;14.40
68745;BMP180;66104;45.456;11.064;2023-02-22T13:21:00;100703.60;;;14.40
68745;BMP180;66104;45.456;11.064;2023-02-22T13:23:49;100703.60;;;14.34
68745;BMP180;66104;45.456;11.064;2023-02-22T13:26:36;100702.40;;;14.30
68745;BMP180;66104;45.456;11.064;2023-02-22T13:29:18;100701.20;;;14.30
68745;BMP180;66104;45.456;11.064;2023-02-22T13:39:00;100689.40;;;14.30
68745;BMP180;66104;45.456;11.064;2023-02-22T13:49:04;100691.40;;;14.30
68745;BMP180;66104;45.456;11.064;2023-02-22T13:51:51;100690.20;;;14.20
68745;BMP180;66104;45.456;11.064;2023-02-22T13:54:43;100690.40;;;14.20
68745;BMP180;66104;45.456;11.064;2023-02-22T13:57:28;100686.00;;;14.18
68745;BMP180;66104;45.456;11.064;2023-02-22T14:00:46;100684.00;;;14.10
68745;BMP180;66104;45.456;11.064;2023-02-22T14:03:39;100682.00;;;14.10
68745;BMP180;66104;45.456;11.064;2023-02-22T14:06:42;100682.00;;;14.10
68745;BMP180;66104;45.456;11.064;2023-02-22T14:09:44;100679.40;;;14.10
68745;BMP180;66104;45.456;11.064;2023-02-22T14:12:53;100678.20;;;14.10
68745;BMP180;66104;45.456;11.064;2023-02-22T14:19:03;100676.00;;;14.00
68745;BMP180;66104;45.456;11.064;2023-02-22T14:21:57;100673.00;;;14.00
68745;BMP180;66104;45.456;11.064;2023-02-22T14:24:47;100673.40;;;14.00
68745;BMP180;66104;45.456;11.064;2023-02-22T14:27:24;100675.00;;;14.00
68745;BMP180;66104;45.456;11.064;2023-02-22T14:30:30;100673.40;;;14.00
68745;BMP180;66104;45.456;11.064;2023-02-22T14:33:57;100666.20;;;14.00
68745;BMP180;66104;45.456;11.064;2023-02-22T14:39:34;100663.40;;;14.00
68745;BMP180;66104;45.456;11.064;2023-02-22T14:42:21;100663.40;;;14.00
68745;BMP180;66104;45.456;11.064;2023-02-22T14:45:13;100667.80;;;14.08
68745;BMP180;66104;45.456;11.064;2023-02-22T14:48:01;100664.80;;;14.00
68745;BMP180;66104;45.456;11.064;2023-02-22T14:50:53;100666.40;;;14.00
68745;BMP180;66104;45.456;11.064;2023-02-22T14:53:49;100666.40;;;14.00
68745;BMP180;66104;45.456;11.064;2023-02-22T14:56:31;100667.20;;;14.00
68745;BMP180;66104;45.456;11.064;2023-02-22T14:59:20;100667.60;;;14.00
68745;BMP180;66104;45.456;11.064;2023-02-22T15:02:13;100667.00;;;14.02
68745;BMP180;66104;45.456;11.064;2023-02-22T15:04:56;100666.00;;;14.04
68745;BMP180;66104;45.456;11.064;2023-02-22T15:07:34;100667.40;;;14.04
68745;BMP180;66104;45.456;11.064;2023-02-22T15:10:29;100661.00;;;14.06
68745;BMP180;66104;45.456;11.064;2023-02-22T15:13:17;100660.40;;;14.00
68745;BMP180;66104;45.456;11.064;2023-02-22T15:16:00;100659.00;;;14.00
68745;BMP180;66104;45.456;11.064;2023-02-22T15:18:42;100656.80;;;13.92
68745;BMP180;66104;45.456;11.064;2023-02-22T15:21:22;100653.60;;;13.90
68745;BMP180;66104;45.456;11.064;2023-02-22T15:24:02;100652.60;;;13.90
68745;BMP180;66104;45.456;11.064;2023-02-22T15:26:41;100655.60;;;13.90
68745;BMP180;66104;45.456;11.064;2023-02-22T15:29:39;100653.20;;;13.90
68745;BMP180;66104;45.456;11.064;2023-02-22T15:32:31;100652.60;;;13.90
68745;BMP180;66104;45.456;11.064;2023-02-22T15:35:27;100655.20;;;13.84
68745;BMP180;66104;45.456;11.064;2023-02-22T15:38:18;100654.20;;;13.90
68745;BMP180;66104;45.456;11.064;2023-02-22T15:41:06;100652.20;;;13.90
68745;BMP180;66104;45.456;11.064;2023-02-22T15:46:56;100652.20;;;13.90
68745;BMP180;66104;45.456;11.064;2023-02-22T15:49:34;100649.80;;;13.94